Korf, Russia
Current Conditions -  °F | °C
As of 7:00 AM on Sunday 26 Oct 2014 (Local Time) from UHMM Reporting Station
Few Clouds Few Clouds  
Wind Chill: -6°   Ceiling: Unl
Heat Index: -6°   Visibility: 6mi
Dew Point: -9°   Wind: 2mph
Humidity: 84%   Direction: 80°E
Pressure: 29.83"   Gusts: NA
Location:  60.32°N, 165.83°E
Report Text: UHMM 251900Z 08001MPS 9999 FEW100 M21/M23 Q1010 RMK QFE743
Loading
Personal Weather Stations






























Interactive Weather Map
Tropical Storm Tracking
New forecast layout! Learn more

10-Day Weather Forecast

Advertisements
Track Severe Weather on mobile